Terminal Aerodrome Forecast
Issued by NWS Shreveport, LA

Home | Current Version | Previous Version | Text Only | Print | Product List | Glossary On
Versions: 1 2 3 4 5 6 7 8 9 10 11 12 13 14 15 16 17 18 19 20 21 22 23
714
FTUS44 KSHV 301137 AAA
TAFSHV
TAF AMD
KSHV 301137Z 3012/3112 VRB03KT 2SM BR SCT004 BKN250
      TEMPO 3012/3014 1/2SM FG OVC001
     FM301400 VRB02KT P6SM BKN004
     FM301600 VRB03KT P6SM BKN025
     FM301800 09006KT P6SM BKN035
     FM302000 11007KT P6SM SCT040 SCT250
     FM310100 14003KT P6SM SCT250
     FM310900 VRB02KT 6SM BR SCT010 BKN250=

USA.gov is the U.S. government's official web portal to all federal, state and local government web resources and services.